Lake Kiowa, Texas
Current Conditions -  °F | °C
As of 11:55 AM on Friday 24 Oct 2014 (Local Time) from KGLE Reporting Station
Clear Clear  
Wind Chill: 74°   Ceiling: Unl
Heat Index: 74°   Visibility: 10mi
Dew Point: 59°   Wind: 10mph
Humidity: 60%   Direction: 170°S
Pressure: 30.17"   Gusts: NA
Location:  33.7001°N, 97.0805°W
Report Text: KGLE 241655Z AUTO 17009KT 10SM CLR 23/15 A3017 RMK AO2 T02320151
Loading
Personal Weather Stations






























Interactive Weather Map
Tropical Storm Tracking
New forecast layout! Learn more

10-Day Weather Forecast

Advertisements
Track Severe Weather on mobile